Corvallis Municipal Airport
KCVO : now visible

Airfield :











YOU CAN JOIN US ON...

 
LOGIN :

Register | Disclaimer

   EN    FR    IT 

 









Legend :    VFR   Marginal VFR   IFR   Intensive IFR   Very Intensive IFR
Visi :
Ceiling :
>= 8 km
>= 3000ft
5 to 8 km
1000 to 3000 ft
1500m to 5 km
500 to 1000 ft
800 to 1500m
200 to 500 ft
< 800m
< 200 ft
Symbols :   Thunderstorms  Fog  Heavy snow  Heavy precipitations  Wind > 20 kt






- Airport Elevation : 250 ft


KCVO - Corvallis Municipal

CURRENT METAR :
  • 171456Z AUTO 15003KT 10SM SCT047 BKN060 OVC110 01/01 A3011 RMK AO2 SLP199 60001 T00110006 53020 FZRANO

EXPIRED METARs :
  • 171356Z AUTO 22005KT 10SM SCT100 BKN120 01/00 A3009 RMK AO2 SLP191 T00060000 FZRANO
  • 171256Z AUTO 18007KT 10SM BKN040 BKN050 BKN120 01/01 A3007 RMK AO2 RAB1157E45 SLP183 P0001 T00110011 FZRANO
  • 171240Z AUTO 18008KT 10SM -RA FEW022 BKN045 OVC050 01/01 A3006 RMK AO2 RAB1157 P0001 FZRANO
  • 171217Z AUTO 18004KT 10SM -RA FEW017 BKN024 OVC047 01/01 A3005 RMK AO2 RAB1157 P0000 FZRANO

TAF N/A



MET'MAP, your aeronautical weather chart ! - Copyright ORBIFLY December 2007 - Disclaimer

ORBIFLY MET'MAP TEAM :

Programming & Development : Alexandra Zaïnal
Concept & original design : Baudouin d'Aumeries
Assistance for programming : Marc-Olivier Méhu
Technical & hardware support : Manuel Goepfert

Contact : metmap@orbifly.com




SOURCES & CREDITS :

   NOAA       Earth
Advisory